TimeCDT,TemperatureF,Dew PointF,Humidity,Sea Level PressureIn,VisibilityMPH,Wind Direction,Wind SpeedMPH,Gust SpeedMPH,PrecipitationIn,Events,Conditions,WindDirDegrees,DateUTC
12:53 AM,66.9,60.1,79,30.07,10.0,South,9.2,-,N/A,,Clear,170,2013-08-11 05:53:00
1:53 AM,69.1,61.0,75,30.08,10.0,South,9.2,-,N/A,,Clear,190,2013-08-11 06:53:00
2:53 AM,66.0,61.0,84,30.06,10.0,South,9.2,-,N/A,,Clear,170,2013-08-11 07:53:00
3:53 AM,66.0,61.0,84,30.06,10.0,South,9.2,-,N/A,,Clear,190,2013-08-11 08:53:00
4:53 AM,64.9,61.0,87,30.05,10.0,SW,5.8,-,N/A,,Clear,220,2013-08-11 09:53:00
5:53 AM,64.0,61.0,90,30.06,10.0,Calm,Calm,-,N/A,,Clear,0,2013-08-11 10:53:00
6:53 AM,62.1,60.1,93,30.05,8.0,SE,4.6,-,N/A,,Clear,130,2013-08-11 11:53:00
7:53 AM,63.0,61.0,93,30.05,7.0,South,4.6,-,N/A,,Clear,170,2013-08-11 12:53:00
8:53 AM,71.1,63.0,75,30.06,10.0,SSW,8.1,-,N/A,,Clear,210,2013-08-11 13:53:00
9:53 AM,75.9,63.0,64,30.06,10.0,SSW,12.7,-,N/A,,Clear,210,2013-08-11 14:53:00
10:53 AM,79.0,64.0,60,30.06,10.0,SSW,11.5,-,N/A,,Clear,200,2013-08-11 15:53:00
11:53 AM,82.0,64.0,54,30.05,10.0,South,11.5,-,N/A,,Clear,190,2013-08-11 16:53:00
12:53 PM,82.0,64.0,54,30.04,10.0,South,10.4,17.3,N/A,,Clear,180,2013-08-11 17:53:00
1:53 PM,82.0,64.0,54,30.02,10.0,South,8.1,-,N/A,,Clear,190,2013-08-11 18:53:00
2:53 PM,81.0,64.0,56,30.01,10.0,SSE,6.9,-,N/A,,Clear,160,2013-08-11 19:53:00
3:53 PM,82.0,64.9,56,30.00,10.0,SE,8.1,-,N/A,,Clear,140,2013-08-11 20:53:00
4:53 PM,84.0,64.9,53,29.98,10.0,SSE,9.2,-,N/A,,Partly Cloudy,160,2013-08-11 21:53:00
5:53 PM,84.0,64.9,53,29.98,10.0,SE,5.8,-,N/A,,Partly Cloudy,140,2013-08-11 22:53:00
6:53 PM,82.9,66.0,56,29.97,10.0,South,3.5,-,N/A,,Scattered Clouds,190,2013-08-11 23:53:00
7:53 PM,82.0,66.9,60,29.97,10.0,West,3.5,-,N/A,Thunderstorm,Overcast,270,2013-08-12 00:53:00
8:53 PM,73.9,59.0,59,29.97,10.0,East,4.6,-,N/A,Thunderstorm,Overcast,80,2013-08-12 01:53:00
9:53 PM,71.1,66.9,87,30.00,4.0,NE,4.6,-,0.08,Rain-Thunderstorm,Rain,40,2013-08-12 02:53:00
10:53 PM,66.9,64.9,93,29.99,8.0,South,3.5,-,0.03,Rain-Thunderstorm,Light Rain,170,2013-08-12 03:53:00
11:01 PM,68.0,64.4,88,30.04,10.0,SSE,6.9,-,0.00,Rain,Light Rain,160,2013-08-12 04:01:00
11:53 PM,66.9,64.9,93,30.00,8.0,North,3.5,-,0.00,,Clear,10,2013-08-12 04:53:00